createdAt,value
2023-01-15T06:05:39.618Z,98336.47
2023-01-15T06:08:06.171Z,98344.44
2023-01-15T06:10:33.332Z,98339.22
2023-01-15T06:12:59.879Z,98348.06
2023-01-15T06:15:27.024Z,98340.00
2023-01-15T06:17:53.645Z,98340.78
2023-01-15T06:20:20.832Z,98340.50
2023-01-15T06:22:49.194Z,98336.97
2023-01-15T06:25:16.281Z,98334.19
2023-01-15T06:27:44.463Z,98333.25
2023-01-15T06:30:12.734Z,98331.53
2023-01-15T06:32:39.277Z,98333.25
2023-01-15T06:35:06.911Z,98336.53
2023-01-15T06:37:33.577Z,98333.09
2023-01-15T06:40:00.757Z,98335.63
2023-01-15T06:42:45.931Z,98332.09
2023-01-15T06:45:31.665Z,98336.53
2023-01-15T06:47:58.904Z,98333.38
2023-01-15T06:50:26.237Z,98336.81
2023-01-15T06:52:52.793Z,98333.25
2023-01-15T06:55:20.049Z,98321.78
2023-01-15T06:57:46.587Z,98335.38
2023-01-15T07:00:14.366Z,98331.69
2023-01-15T07:02:41.357Z,98334.44
2023-01-15T07:05:09.086Z,98345.53
2023-01-15T07:07:35.728Z,98343.78
2023-01-15T07:10:03.042Z,98335.72
2023-01-15T07:12:30.426Z,98332.53
2023-01-15T07:14:58.461Z,98335.31
2023-01-15T07:17:25.052Z,98345.88
2023-01-15T07:19:52.268Z,98344.22
2023-01-15T07:22:18.838Z,98345.78
2023-01-15T07:24:46.080Z,98350.84
2023-01-15T07:27:12.675Z,98346.56
2023-01-15T07:29:39.741Z,98347.50
2023-01-15T07:32:06.571Z,98333.38
2023-01-15T07:34:33.228Z,98336.31
2023-01-15T07:37:00.091Z,98333.03
2023-01-15T07:39:28.645Z,98337.06
2023-01-15T07:42:13.607Z,98341.28
2023-01-15T07:44:59.342Z,98345.94
2023-01-15T07:47:45.087Z,98335.53
2023-01-15T07:50:18.387Z,98337.22
2023-01-15T07:52:45.132Z,98338.81
2023-01-15T07:55:13.522Z,98328.53
2023-01-15T07:57:41.762Z,98331.94
2023-01-15T08:00:14.942Z,98329.09
2023-01-15T08:02:42.062Z,98333.81
2023-01-15T08:05:09.999Z,98344.38
2023-01-15T08:07:38.404Z,98336.16
2023-01-15T08:10:06.099Z,98347.50
2023-01-15T08:12:51.372Z,98350.91
2023-01-15T08:15:18.792Z,98344.88
2023-01-15T08:17:47.804Z,98345.63
2023-01-15T08:20:20.628Z,98348.56
2023-01-15T08:22:48.031Z,98356.06
2023-01-15T08:25:17.940Z,98357.13
2023-01-15T08:27:45.411Z,98346.63
2023-01-15T08:30:16.330Z,98357.91
2023-01-15T08:32:43.370Z,98352.34
2023-01-15T08:35:10.573Z,98355.94
2023-01-15T08:37:37.151Z,98361.91
2023-01-15T08:40:04.851Z,98355.94
2023-01-15T08:42:31.607Z,98357.31
2023-01-15T08:44:58.775Z,98363.59
2023-01-15T08:47:25.440Z,98365.72
2023-01-15T08:49:52.636Z,98347.75
2023-01-15T08:52:19.242Z,98368.28
2023-01-15T08:54:46.393Z,98360.44
2023-01-15T08:57:13.877Z,98364.00
2023-01-15T08:59:43.650Z,98366.56
2023-01-15T09:02:14.872Z,98364.72
2023-01-15T09:04:41.907Z,98371.56
2023-01-15T09:07:09.307Z,98382.75
2023-01-15T09:09:35.959Z,98370.44
2023-01-15T09:12:03.196Z,98375.47
2023-01-15T09:14:59.737Z,98388.56
2023-01-15T09:17:17.004Z,98386.56
2023-01-15T09:19:43.958Z,98383.94
2023-01-15T09:22:10.485Z,98391.56
2023-01-15T09:24:37.544Z,98390.78
2023-01-15T09:27:04.736Z,98385.59
2023-01-15T09:29:31.415Z,98393.56
2023-01-15T09:31:58.648Z,98383.28
2023-01-15T09:34:25.190Z,98390.53
2023-01-15T09:36:52.499Z,98384.53
2023-01-15T09:39:19.063Z,98394.88
2023-01-15T09:42:13.181Z,98391.25
2023-01-15T09:44:58.741Z,98392.91
2023-01-15T09:47:30.785Z,98391.19
2023-01-15T09:49:57.946Z,98400.03
2023-01-15T09:52:34.992Z,98398.19
2023-01-15T09:55:26.285Z,98397.97
2023-01-15T09:57:55.715Z,98401.19
2023-01-15T10:00:25.861Z,98393.41
2023-01-15T10:02:59.047Z,98380.31
2023-01-15T10:05:31.419Z,98393.22
2023-01-15T10:08:11.202Z,98384.44
2023-01-15T10:11:04.491Z,98385.00
2023-01-15T10:13:55.288Z,98378.03
2023-01-15T10:16:27.503Z,98373.47
2023-01-15T10:18:58.031Z,98381.03
2023-01-15T10:21:48.390Z,98372.91
2023-01-15T10:24:23.293Z,98376.91
2023-01-15T10:26:58.013Z,98375.63
2023-01-15T10:29:45.542Z,98377.19
2023-01-15T10:32:38.330Z,98376.19
2023-01-15T10:35:11.183Z,98374.97
2023-01-15T10:37:42.078Z,98374.03
2023-01-15T10:40:33.209Z,98377.41
2023-01-15T10:43:20.627Z,98371.34
2023-01-15T10:45:53.550Z,98381.59
2023-01-15T10:48:48.783Z,98383.16
2023-01-15T10:51:23.584Z,98373.16
2023-01-15T10:54:06.816Z,98379.16
2023-01-15T10:56:41.415Z,98384.19
2023-01-15T10:59:23.741Z,98379.56
2023-01-15T11:01:54.223Z,98382.13
2023-01-15T11:04:22.315Z,98390.88
2023-01-15T11:06:48.981Z,98387.28
2023-01-15T11:09:36.266Z,98378.41
2023-01-15T11:12:26.031Z,98360.72
2023-01-15T11:15:12.841Z,98384.28
2023-01-15T11:18:03.698Z,98380.63
2023-01-15T11:20:38.602Z,98373.34
2023-01-15T11:23:10.469Z,98385.59
2023-01-15T11:25:44.997Z,98385.44
2023-01-15T11:28:15.280Z,98377.22
2023-01-15T11:30:45.127Z,98385.16
2023-01-15T11:33:27.989Z,98392.94
2023-01-15T11:35:58.793Z,98390.22
2023-01-15T11:38:27.567Z,98389.22
2023-01-15T11:40:57.112Z,98375.06
2023-01-15T11:43:45.280Z,98378.31
2023-01-15T11:46:44.276Z,98371.19
2023-01-15T11:49:29.544Z,98385.09
2023-01-15T11:51:59.089Z,98378.72
2023-01-15T11:54:27.007Z,98392.16
2023-01-15T11:56:55.136Z,98383.84
2023-01-15T11:59:22.542Z,98385.16
2023-01-15T12:02:26.202Z,98377.22
2023-01-15T12:04:57.441Z,98379.25
2023-01-15T12:07:26.497Z,98384.69
2023-01-15T12:10:14.660Z,98391.69
2023-01-15T12:13:01.733Z,98378.78
2023-01-15T12:15:40.818Z,98380.75
2023-01-15T12:18:33.558Z,98373.03
2023-01-15T12:21:14.236Z,98378.50
2023-01-15T12:24:08.597Z,98371.31
2023-01-15T12:26:53.270Z,98374.56
2023-01-15T12:29:28.390Z,98371.88
2023-01-15T12:32:10.014Z,98378.00
2023-01-15T12:35:01.754Z,98367.53
2023-01-15T12:37:34.132Z,98369.16
2023-01-15T12:40:38.501Z,98368.28
2023-01-15T12:43:33.774Z,98349.72
2023-01-15T12:46:02.761Z,98361.34
2023-01-15T12:48:44.189Z,98359.88
2023-01-15T12:51:18.045Z,98370.31
2023-01-15T12:53:52.343Z,98365.00
2023-01-15T12:56:28.267Z,98355.44
2023-01-15T12:59:21.811Z,98355.06
2023-01-15T13:02:09.580Z,98356.09
2023-01-15T13:04:45.420Z,98357.50
2023-01-15T13:07:21.882Z,98364.66
2023-01-15T13:10:13.425Z,98362.78
2023-01-15T13:12:40.036Z,98350.63
2023-01-15T13:15:07.385Z,98352.50
2023-01-15T13:17:52.491Z,98350.63
2023-01-15T13:20:45.019Z,98361.28
2023-01-15T13:23:49.253Z,98353.28
2023-01-15T13:26:27.738Z,98357.78
2023-01-15T13:29:00.739Z,98353.06
2023-01-15T13:31:56.680Z,98358.72
2023-01-15T13:34:39.230Z,98359.72
2023-01-15T13:37:30.872Z,98349.88
2023-01-15T13:40:27.356Z,98363.38
2023-01-15T13:42:54.530Z,98365.19
2023-01-15T13:45:41.209Z,98352.97
2023-01-15T13:48:24.020Z,98360.91
2023-01-15T13:50:59.491Z,98359.97
2023-01-15T13:53:44.916Z,98364.22
2023-01-15T13:56:16.037Z,98361.84
2023-01-15T13:58:57.375Z,98379.56
2023-01-15T14:01:30.012Z,98384.16
2023-01-15T14:04:02.007Z,98368.28
2023-01-15T14:06:43.801Z,98395.72
2023-01-15T14:09:21.011Z,98386.88
2023-01-15T14:11:58.173Z,98373.56
2023-01-15T14:14:48.539Z,98397.63
2023-01-15T14:18:08.690Z,98392.63
2023-01-15T14:20:51.611Z,98397.28
2023-01-15T14:23:40.312Z,98394.63
2023-01-15T14:26:11.417Z,98407.09
2023-01-15T14:29:12.683Z,98407.09
2023-01-15T14:32:02.929Z,98408.09
2023-01-15T14:34:33.209Z,98406.22
2023-01-15T14:37:04.671Z,98410.09
2023-01-15T14:39:50.372Z,98406.00
2023-01-15T14:42:41.707Z,98407.84
2023-01-15T14:45:18.001Z,98400.69
2023-01-15T14:47:53.721Z,98412.03
2023-01-15T14:50:28.022Z,98416.41
2023-01-15T14:52:59.659Z,98420.25
2023-01-15T14:55:26.653Z,98431.53
2023-01-15T14:58:01.905Z,98421.84
2023-01-15T15:00:35.881Z,98420.25
2023-01-15T15:03:13.098Z,98427.41
2023-01-15T15:05:44.054Z,98434.53
2023-01-15T15:08:15.905Z,98432.69
2023-01-15T15:10:46.361Z,98436.19
2023-01-15T15:13:38.166Z,98431.00
2023-01-15T15:16:11.819Z,98451.19
2023-01-15T15:18:44.632Z,98443.56
2023-01-15T15:21:27.657Z,98433.16
2023-01-15T15:24:07.613Z,98434.69
2023-01-15T15:26:35.582Z,98432.16
2023-01-15T15:29:06.118Z,98434.84
2023-01-15T15:31:37.513Z,98433.84
2023-01-15T15:34:07.525Z,98441.06
2023-01-15T15:36:39.303Z,98440.97
2023-01-15T15:39:37.516Z,98447.84
2023-01-15T15:42:30.030Z,98444.19
2023-01-15T15:45:18.061Z,98440.97
2023-01-15T15:48:03.982Z,98452.28
2023-01-15T15:50:35.193Z,98445.13
2023-01-15T15:53:07.034Z,98448.69
2023-01-15T15:55:40.618Z,98446.84
2023-01-15T15:58:12.805Z,98443.41
2023-01-15T16:00:44.190Z,98451.34
2023-01-15T16:03:23.791Z,98453.75
2023-01-15T16:06:05.175Z,98458.19
2023-01-15T16:08:36.352Z,98452.81
2023-01-15T16:11:07.194Z,98450.19
2023-01-15T16:13:51.223Z,98460.13
2023-01-15T16:16:19.301Z,98452.41
2023-01-15T16:18:50.710Z,98448.19
2023-01-15T16:21:30.417Z,98462.22
2023-01-15T16:23:58.723Z,98454.28
2023-01-15T16:26:42.100Z,98449.00
2023-01-15T16:29:22.205Z,98457.97
2023-01-15T16:31:49.348Z,98453.53
2023-01-15T16:34:22.713Z,98459.66
2023-01-15T16:36:49.461Z,98462.22
2023-01-15T16:39:31.115Z,98465.09
2023-01-15T16:41:59.302Z,98471.09
2023-01-15T16:44:50.660Z,98479.09
2023-01-15T16:47:29.466Z,98479.09
2023-01-15T16:50:19.755Z,98479.81
2023-01-15T16:52:53.160Z,98472.97
2023-01-15T16:55:35.528Z,98473.97
2023-01-15T16:58:15.342Z,98486.22
2023-01-15T17:00:45.915Z,98472.25
2023-01-15T17:03:14.638Z,98472.09
2023-01-15T17:05:42.469Z,98468.66
2023-01-15T17:08:28.768Z,98487.22
2023-01-15T17:11:01.032Z,98481.94
2023-01-15T17:13:46.073Z,98491.34
2023-01-15T17:16:12.651Z,98489.66
2023-01-15T17:18:40.091Z,98495.78
2023-01-15T17:21:14.382Z,98487.81
2023-01-15T17:23:43.180Z,98502.00
2023-01-15T17:26:17.636Z,98499.38
2023-01-15T17:28:45.267Z,98499.44
2023-01-15T17:31:28.274Z,98502.22
2023-01-15T17:33:56.692Z,98498.72
2023-01-15T17:36:23.639Z,98500.53
2023-01-15T17:38:50.987Z,98496.94
2023-01-15T17:41:19.699Z,98500.72
2023-01-15T17:43:46.945Z,98499.09
2023-01-15T17:46:13.661Z,98496.44
2023-01-15T17:48:40.870Z,98492.84
2023-01-15T17:51:12.487Z,98500.09
2023-01-15T17:53:39.912Z,98497.72
2023-01-15T17:56:25.845Z,98496.59
2023-01-15T17:59:11.650Z,98513.34
2023-01-15T18:02:02.204Z,98510.19
2023-01-15T18:05:04.732Z,98504.06
2023-01-15T18:07:37.398Z,98523.19
2023-01-15T18:10:05.683Z,98523.19
2023-01-15T18:12:32.199Z,98524.06
2023-01-15T18:14:59.482Z,98525.78
2023-01-15T18:17:26.396Z,98508.28
2023-01-15T18:19:55.790Z,98524.06
2023-01-15T18:22:22.543Z,98534.63
2023-01-15T18:24:49.582Z,98533.72
2023-01-15T18:27:16.233Z,98539.03
2023-01-15T18:29:43.943Z,98534.47
2023-01-15T18:32:10.456Z,98550.25
2023-01-15T18:34:38.113Z,98545.13
2023-01-15T18:37:05.278Z,98535.41
2023-01-15T18:39:32.456Z,98546.78
2023-01-15T18:41:58.980Z,98545.03
2023-01-15T18:44:44.795Z,98543.47
2023-01-15T18:47:14.162Z,98539.00
2023-01-15T18:49:42.094Z,98538.19
2023-01-15T18:52:29.001Z,98541.63
2023-01-15T18:54:56.273Z,98540.50
2023-01-15T18:57:23.439Z,98539.00
2023-01-15T18:59:52.147Z,98550.47
2023-01-15T19:02:20.954Z,98554.09
2023-01-15T19:04:48.899Z,98550.47
2023-01-15T19:07:16.485Z,98548.75
2023-01-15T19:09:43.831Z,98538.19
2023-01-15T19:12:11.112Z,98553.19
2023-01-15T19:14:56.778Z,98553.09
2023-01-15T19:17:43.647Z,98553.03
2023-01-15T19:20:14.005Z,98557.47
2023-01-15T19:22:58.833Z,98546.03
2023-01-15T19:25:52.318Z,98545.19
2023-01-15T19:28:20.685Z,98552.19
2023-01-15T19:31:08.217Z,98552.19
2023-01-15T19:33:35.169Z,98548.66
2023-01-15T19:36:03.394Z,98550.31
2023-01-15T19:38:31.072Z,98534.69
2023-01-15T19:41:18.201Z,98539.00
2023-01-15T19:44:02.992Z,98545.47
2023-01-15T19:46:49.312Z,98536.94
2023-01-15T19:49:38.602Z,98535.03
2023-01-15T19:52:23.680Z,98535.31
2023-01-15T19:54:56.526Z,98547.59
2023-01-15T19:57:23.717Z,98544.09
2023-01-15T19:59:51.104Z,98543.38
2023-01-15T20:02:17.919Z,98543.22
2023-01-15T20:04:49.244Z,98535.19
2023-01-15T20:07:16.110Z,98531.63
2023-01-15T20:09:44.353Z,98536.91
2023-01-15T20:12:32.201Z,98533.47
2023-01-15T20:14:59.718Z,98543.22
2023-01-15T20:17:29.128Z,98538.75
2023-01-15T20:19:56.312Z,98523.97
2023-01-15T20:22:25.766Z,98533.59
2023-01-15T20:24:53.289Z,98530.03
2023-01-15T20:27:19.909Z,98530.91
2023-01-15T20:30:06.768Z,98533.59
2023-01-15T20:32:33.335Z,98523.19
2023-01-15T20:35:00.239Z,98533.59
2023-01-15T20:37:26.749Z,98526.47
2023-01-15T20:39:53.907Z,98524.75
2023-01-15T20:42:39.267Z,98540.72
2023-01-15T20:45:13.553Z,98533.88
2023-01-15T20:48:00.124Z,98527.63
2023-01-15T20:50:30.039Z,98528.47
2023-01-15T20:52:58.543Z,98520.03
2023-01-15T20:55:53.796Z,98533.38
2023-01-15T20:58:24.208Z,98528.19
2023-01-15T21:00:52.579Z,98517.78
2023-01-15T21:03:20.348Z,98525.56
2023-01-15T21:05:48.072Z,98509.63
2023-01-15T21:08:14.955Z,98508.66
2023-01-15T21:10:42.133Z,98509.63
2023-01-15T21:13:08.839Z,98512.38
2023-01-15T21:15:35.925Z,98502.59
2023-01-15T21:18:02.484Z,98505.44
2023-01-15T21:20:30.664Z,98497.81
2023-01-15T21:22:58.023Z,98497.59
2023-01-15T21:25:25.844Z,98494.97
2023-01-15T21:27:52.704Z,98492.47
